createdAt,value
2022-08-21T00:00:30.202Z,18.42
2022-08-21T00:03:33.820Z,18.40
2022-08-21T00:06:37.211Z,17.65
2022-08-21T00:09:40.208Z,17.53
2022-08-21T00:12:43.669Z,17.42
2022-08-21T00:15:46.639Z,17.50
2022-08-21T00:18:49.485Z,17.83
2022-08-21T00:21:53.307Z,19.88
2022-08-21T00:24:55.835Z,20.23
2022-08-21T00:27:58.576Z,19.95
2022-08-21T00:31:01.138Z,21.38
2022-08-21T00:34:04.247Z,21.58
2022-08-21T00:37:07.563Z,22.75
2022-08-21T00:40:16.007Z,22.10
2022-08-21T00:43:22.224Z,22.17
2022-08-21T00:46:28.455Z,21.45
2022-08-21T00:49:30.952Z,21.20
2022-08-21T00:52:36.750Z,20.50
2022-08-21T00:55:39.358Z,20.60
2022-08-21T00:58:43.900Z,22.08
2022-08-21T01:01:46.655Z,21.65
2022-08-21T01:04:50.072Z,23.92
2022-08-21T01:07:52.890Z,24.75
2022-08-21T01:10:55.640Z,23.77
2022-08-21T01:14:01.905Z,25.60
2022-08-21T01:17:05.072Z,25.30
2022-08-21T01:20:11.686Z,25.95
2022-08-21T01:23:14.200Z,27.48
2022-08-21T01:26:19.443Z,25.53
2022-08-21T01:29:24.451Z,24.70
2022-08-21T01:32:26.951Z,26.30
2022-08-21T01:35:29.835Z,25.77
2022-08-21T01:38:32.398Z,26.05
2022-08-21T01:41:34.833Z,24.83
2022-08-21T01:44:37.624Z,24.83
2022-08-21T01:47:40.577Z,24.05
2022-08-21T01:50:43.079Z,22.73
2022-08-21T01:53:45.462Z,22.07
2022-08-21T01:56:51.139Z,21.87
2022-08-21T01:59:54.108Z,20.17
2022-08-21T02:02:57.152Z,20.27
2022-08-21T02:05:59.647Z,19.52
2022-08-21T02:09:07.237Z,19.33
2022-08-21T02:12:11.318Z,20.00
2022-08-21T02:15:13.986Z,19.60
2022-08-21T02:18:16.854Z,19.25
2022-08-21T02:21:20.136Z,18.92
2022-08-21T02:24:22.533Z,18.30
2022-08-21T02:27:27.197Z,18.67
2022-08-21T02:30:35.896Z,17.92
2022-08-21T02:33:38.439Z,17.55
2022-08-21T02:36:40.813Z,16.42
2022-08-21T02:39:43.259Z,16.83
2022-08-21T02:42:46.077Z,16.30
2022-08-21T02:45:49.830Z,15.95
2022-08-21T02:48:52.463Z,16.08
2022-08-21T02:51:54.864Z,16.48
2022-08-21T02:54:57.291Z,18.20
2022-08-21T02:58:00.342Z,15.87
2022-08-21T03:01:03.894Z,16.17
2022-08-21T03:04:06.465Z,15.85
2022-08-21T03:07:11.203Z,15.98
2022-08-21T03:10:14.319Z,15.70
2022-08-21T03:13:17.306Z,15.53
2022-08-21T03:16:20.595Z,15.10
2022-08-21T03:19:23.022Z,12.07
2022-08-21T03:22:25.700Z,11.07
2022-08-21T03:25:40.420Z,11.57
2022-08-21T03:28:43.480Z,10.70
2022-08-21T03:31:46.053Z,10.68
2022-08-21T03:34:48.713Z,9.82
2022-08-21T03:37:51.067Z,9.60
2022-08-21T03:40:54.187Z,10.77
2022-08-21T03:43:56.547Z,9.83
2022-08-21T03:46:59.564Z,9.75
2022-08-21T03:50:04.617Z,9.27
2022-08-21T03:53:07.720Z,8.90
2022-08-21T03:56:10.090Z,9.43
2022-08-21T03:59:12.698Z,9.77
2022-08-21T04:02:20.160Z,9.32
2022-08-21T04:05:28.377Z,10.02
2022-08-21T04:08:31.277Z,9.15
2022-08-21T04:11:33.632Z,8.65
2022-08-21T04:14:36.026Z,9.30
2022-08-21T04:17:38.387Z,8.80
2022-08-21T04:20:49.909Z,9.77
2022-08-21T04:23:55.791Z,9.57
2022-08-21T04:26:58.177Z,9.07
2022-08-21T04:30:01.912Z,9.40
2022-08-21T04:33:05.192Z,9.18
2022-08-21T04:36:08.067Z,9.18
2022-08-21T04:39:10.849Z,8.85
2022-08-21T04:42:13.236Z,10.20
2022-08-21T04:45:30.977Z,13.53
2022-08-21T04:48:36.846Z,10.75
2022-08-21T04:51:40.135Z,10.77
2022-08-21T04:54:46.218Z,9.77
2022-08-21T04:57:52.363Z,10.37
2022-08-21T05:00:58.882Z,13.67
2022-08-21T05:04:03.330Z,20.55
2022-08-21T05:07:11.250Z,19.30
2022-08-21T05:10:15.086Z,11.60
2022-08-21T05:13:18.356Z,10.90
2022-08-21T05:16:37.321Z,11.07
2022-08-21T05:19:40.954Z,10.38
2022-08-21T05:22:43.666Z,9.77
2022-08-21T05:25:46.137Z,10.80
2022-08-21T05:28:48.553Z,10.95
2022-08-21T05:31:51.007Z,10.87
2022-08-21T05:34:53.370Z,11.15
2022-08-21T05:37:57.053Z,12.95
2022-08-21T05:40:59.452Z,11.55
2022-08-21T05:44:01.963Z,11.33
2022-08-21T05:47:09.434Z,12.17
2022-08-21T05:50:12.262Z,11.05
2022-08-21T05:53:16.433Z,12.35
2022-08-21T05:56:19.247Z,12.10
2022-08-21T05:59:21.900Z,12.60
2022-08-21T06:02:24.287Z,12.53
2022-08-21T06:05:36.563Z,12.93
2022-08-21T06:08:40.185Z,12.65
2022-08-21T06:11:42.929Z,12.85
2022-08-21T06:14:45.424Z,13.30
2022-08-21T06:17:47.760Z,13.63
2022-08-21T06:20:50.238Z,14.00
2022-08-21T06:23:52.626Z,14.07
2022-08-21T06:26:55.685Z,14.13
2022-08-21T06:29:58.868Z,14.00
2022-08-21T06:33:02.531Z,14.70
2022-08-21T06:36:05.063Z,15.32
2022-08-21T06:39:16.474Z,14.52
2022-08-21T06:42:30.719Z,14.95
2022-08-21T06:45:33.127Z,14.97
2022-08-21T06:48:35.657Z,13.73
2022-08-21T06:51:38.018Z,13.82
2022-08-21T06:54:41.316Z,15.15
2022-08-21T06:57:43.720Z,14.40
2022-08-21T07:00:57.639Z,14.43
2022-08-21T07:04:02.866Z,14.40
2022-08-21T07:07:05.266Z,14.68
2022-08-21T07:10:08.324Z,15.00
2022-08-21T07:13:22.695Z,14.88
2022-08-21T07:16:25.555Z,14.45
2022-08-21T07:19:28.036Z,14.57
2022-08-21T07:22:30.756Z,13.90
2022-08-21T07:25:33.184Z,14.32
2022-08-21T07:28:35.736Z,15.18
2022-08-21T07:31:38.449Z,16.02
2022-08-21T07:34:40.818Z,16.60
2022-08-21T07:37:43.207Z,16.08
2022-08-21T07:40:47.492Z,16.27
2022-08-21T07:43:49.991Z,16.52
2022-08-21T07:46:55.264Z,16.60
2022-08-21T07:49:58.023Z,16.30
2022-08-21T07:53:00.878Z,16.90
2022-08-21T07:56:05.469Z,15.75
2022-08-21T07:59:07.943Z,16.15
2022-08-21T08:02:10.682Z,16.25
2022-08-21T08:05:13.650Z,16.40
2022-08-21T08:08:16.102Z,16.58
2022-08-21T08:11:18.529Z,17.10
2022-08-21T08:14:20.922Z,17.05
2022-08-21T08:17:34.344Z,16.45
2022-08-21T08:20:36.908Z,17.40
2022-08-21T08:23:39.887Z,17.30
2022-08-21T08:26:42.240Z,17.52
2022-08-21T08:29:45.698Z,17.75
2022-08-21T08:32:49.178Z,18.10
2022-08-21T08:35:53.243Z,18.73
2022-08-21T08:38:55.813Z,19.08
2022-08-21T08:42:33.181Z,19.17
2022-08-21T08:45:33.145Z,19.15
2022-08-21T08:48:52.806Z,18.80
2022-08-21T08:52:02.457Z,19.90
2022-08-21T08:55:20.904Z,18.83
2022-08-21T08:58:28.397Z,20.23
2022-08-21T09:01:33.450Z,20.00
2022-08-21T09:04:38.035Z,20.60
2022-08-21T09:08:09.462Z,21.20
2022-08-21T09:11:26.398Z,19.85
2022-08-21T09:14:55.863Z,21.00
2022-08-21T09:18:22.066Z,19.65
2022-08-21T09:21:42.013Z,22.08
2022-08-21T09:24:58.093Z,21.77
2022-08-21T09:28:00.526Z,20.52
2022-08-21T09:31:33.762Z,22.30
2022-08-21T09:34:37.092Z,20.38
2022-08-21T09:37:47.388Z,21.60
2022-08-21T09:40:58.455Z,21.47
2022-08-21T09:44:00.837Z,23.42
2022-08-21T09:47:03.289Z,23.67
2022-08-21T09:50:13.610Z,24.45
2022-08-21T09:53:32.576Z,22.50
2022-08-21T09:56:58.439Z,21.73
2022-08-21T10:00:25.210Z,21.35
2022-08-21T10:03:28.292Z,20.27
2022-08-21T10:06:30.877Z,22.60
2022-08-21T10:09:33.671Z,23.70
2022-08-21T10:13:00.913Z,21.27
2022-08-21T10:16:31.405Z,23.48
2022-08-21T10:19:49.278Z,21.88
2022-08-21T10:23:03.913Z,23.30
2022-08-21T10:26:38.573Z,22.40
2022-08-21T10:30:09.154Z,23.90
2022-08-21T10:33:27.359Z,23.27
2022-08-21T10:36:34.872Z,22.73
2022-08-21T10:40:10.529Z,22.83
2022-08-21T10:43:29.964Z,24.80
2022-08-21T10:46:50.438Z,23.53
2022-08-21T10:50:28.856Z,24.10
2022-08-21T10:53:48.124Z,23.85
2022-08-21T10:56:58.321Z,23.92
2022-08-21T11:00:11.439Z,23.27
2022-08-21T11:03:16.889Z,24.23
2022-08-21T11:06:25.945Z,25.92
2022-08-21T11:09:28.714Z,25.40
2022-08-21T11:12:42.565Z,23.05
2022-08-21T11:16:20.543Z,22.98
2022-08-21T11:19:33.160Z,22.77
2022-08-21T11:23:01.480Z,22.67
2022-08-21T11:26:16.811Z,24.33
2022-08-21T11:29:27.597Z,23.55
2022-08-21T11:32:48.353Z,21.63
2022-08-21T11:36:21.780Z,22.47
2022-08-21T11:39:51.379Z,22.75
2022-08-21T11:43:38.758Z,22.17
2022-08-21T11:46:50.909Z,21.90
2022-08-21T11:50:02.062Z,22.83
2022-08-21T11:53:14.361Z,22.77
2022-08-21T11:56:22.404Z,22.35
2022-08-21T11:59:40.847Z,21.33
2022-08-21T12:03:05.851Z,20.80
2022-08-21T12:06:11.493Z,23.60
2022-08-21T12:09:25.734Z,24.50
2022-08-21T12:12:39.493Z,22.83
2022-08-21T12:15:41.896Z,22.63
2022-08-21T12:18:44.645Z,23.08
2022-08-21T12:22:04.162Z,22.07
2022-08-21T12:25:19.661Z,18.40
2022-08-21T12:28:25.919Z,19.73
2022-08-21T12:31:29.055Z,19.65
2022-08-21T12:34:43.644Z,18.58
2022-08-21T12:37:57.062Z,19.20
2022-08-21T12:41:07.455Z,16.40
2022-08-21T12:44:13.783Z,17.63
2022-08-21T12:47:18.612Z,18.55
2022-08-21T12:50:29.871Z,18.05
2022-08-21T12:53:39.916Z,18.40
2022-08-21T12:56:42.303Z,17.57
2022-08-21T12:59:44.921Z,17.42
2022-08-21T13:02:50.232Z,18.65
2022-08-21T13:05:54.645Z,17.38
2022-08-21T13:09:04.509Z,17.33
2022-08-21T13:12:09.697Z,17.03
2022-08-21T13:15:12.373Z,14.00
2022-08-21T13:18:29.666Z,15.80
2022-08-21T13:21:41.531Z,13.35
2022-08-21T13:24:47.694Z,15.13
2022-08-21T13:28:08.191Z,12.53
2022-08-21T13:31:11.451Z,10.90
2022-08-21T13:34:15.684Z,11.27
2022-08-21T13:37:18.583Z,11.85
2022-08-21T13:40:42.996Z,12.75
2022-08-21T13:43:48.037Z,11.43
2022-08-21T13:46:51.839Z,12.45
2022-08-21T13:49:59.102Z,11.77
2022-08-21T13:53:05.365Z,12.25
2022-08-21T13:56:07.782Z,11.00
2022-08-21T13:59:12.609Z,10.73
2022-08-21T14:02:23.249Z,11.05
2022-08-21T14:05:32.385Z,10.27
2022-08-21T14:08:38.261Z,9.95
2022-08-21T14:11:41.272Z,10.88
2022-08-21T14:14:44.705Z,9.63
2022-08-21T14:17:47.396Z,7.95
2022-08-21T14:20:50.009Z,8.07
2022-08-21T14:24:13.501Z,9.32
2022-08-21T14:27:19.008Z,8.63
2022-08-21T14:30:30.260Z,8.90
2022-08-21T14:33:33.563Z,9.75
2022-08-21T14:36:35.926Z,10.10
2022-08-21T14:39:39.974Z,9.60
2022-08-21T14:42:45.966Z,10.65
2022-08-21T14:45:48.820Z,11.57
2022-08-21T14:48:51.887Z,10.65
2022-08-21T14:51:58.204Z,11.88
2022-08-21T14:55:00.968Z,9.90
2022-08-21T14:58:03.433Z,9.23
2022-08-21T15:01:10.824Z,10.93
2022-08-21T15:04:13.453Z,11.27
2022-08-21T15:07:15.830Z,10.90
2022-08-21T15:10:18.284Z,10.88
2022-08-21T15:13:21.835Z,11.00
2022-08-21T15:16:24.754Z,10.23
2022-08-21T15:19:28.344Z,10.82
2022-08-21T15:22:30.687Z,10.02
2022-08-21T15:25:33.951Z,9.95
2022-08-21T15:28:37.741Z,10.43
2022-08-21T15:32:01.433Z,9.77
2022-08-21T15:35:04.243Z,10.02
2022-08-21T15:38:07.283Z,11.10
2022-08-21T15:41:14.665Z,11.88
2022-08-21T15:44:17.428Z,11.97
2022-08-21T15:47:24.745Z,11.50
2022-08-21T15:50:27.426Z,10.07
2022-08-21T15:53:29.905Z,9.98
2022-08-21T15:56:37.893Z,9.02
2022-08-21T15:59:45.995Z,9.13
2022-08-21T16:02:51.392Z,8.43
2022-08-21T16:05:56.209Z,8.98
2022-08-21T16:08:59.554Z,8.40
2022-08-21T16:12:02.470Z,8.25
2022-08-21T16:15:08.511Z,8.30
2022-08-21T16:18:13.152Z,9.03
2022-08-21T16:21:16.639Z,9.20
2022-08-21T16:24:19.058Z,8.63
2022-08-21T16:27:21.595Z,8.88
2022-08-21T16:30:30.741Z,9.52
2022-08-21T16:33:40.489Z,8.87
2022-08-21T16:36:43.833Z,9.40
2022-08-21T16:39:46.315Z,10.10
2022-08-21T16:42:49.242Z,8.95
2022-08-21T16:45:53.096Z,9.13
2022-08-21T16:48:55.455Z,9.40
2022-08-21T16:51:58.059Z,9.55
2022-08-21T16:55:00.440Z,8.35
2022-08-21T16:58:07.268Z,7.90
2022-08-21T17:01:12.704Z,7.38
2022-08-21T17:04:15.243Z,8.37
2022-08-21T17:07:17.611Z,8.35
2022-08-21T17:10:20.371Z,8.30
2022-08-21T17:13:23.136Z,9.55
2022-08-21T17:16:26.082Z,8.30
2022-08-21T17:19:28.510Z,8.37
2022-08-21T17:22:30.883Z,9.20
2022-08-21T17:25:34.163Z,8.25
2022-08-21T17:28:37.597Z,8.95
2022-08-21T17:31:42.090Z,8.70
2022-08-21T17:34:45.075Z,8.20
2022-08-21T17:37:47.805Z,8.27
2022-08-21T17:40:50.763Z,9.90
2022-08-21T17:43:55.002Z,10.13
2022-08-21T17:46:57.545Z,10.55
2022-08-21T17:49:59.985Z,11.10
2022-08-21T17:53:02.812Z,10.65
2022-08-21T17:56:06.912Z,8.48
2022-08-21T17:59:10.586Z,7.70
2022-08-21T18:02:19.972Z,7.07
2022-08-21T18:05:23.032Z,7.17
2022-08-21T18:08:25.714Z,7.45
2022-08-21T18:11:30.563Z,8.02
2022-08-21T18:14:36.278Z,7.30
2022-08-21T18:17:40.668Z,7.70
2022-08-21T18:20:43.118Z,7.70
2022-08-21T18:23:45.447Z,7.28
2022-08-21T18:26:48.513Z,8.20
2022-08-21T18:29:54.518Z,8.73
2022-08-21T18:33:18.383Z,10.07
2022-08-21T18:36:40.710Z,9.63
2022-08-21T18:40:06.106Z,9.07
2022-08-21T18:43:28.424Z,8.05
2022-08-21T18:46:30.811Z,7.82
2022-08-21T18:49:53.097Z,7.10
2022-08-21T18:52:55.739Z,6.83
2022-08-21T18:56:05.350Z,7.63
2022-08-21T18:59:10.216Z,7.50
2022-08-21T19:02:12.813Z,7.43
2022-08-21T19:05:17.622Z,7.53
2022-08-21T19:08:23.243Z,7.60
2022-08-21T19:11:26.156Z,7.68
2022-08-21T19:14:29.311Z,7.70
2022-08-21T19:17:31.756Z,8.38
2022-08-21T19:20:36.871Z,7.37
2022-08-21T19:23:41.337Z,7.03
2022-08-21T19:26:46.751Z,8.05
2022-08-21T19:29:49.428Z,7.68
2022-08-21T19:32:52.041Z,7.63
2022-08-21T19:35:54.486Z,7.55
2022-08-21T19:38:57.673Z,8.07
2022-08-21T19:42:00.279Z,8.07
2022-08-21T19:45:04.439Z,8.75
2022-08-21T19:48:07.032Z,8.93
2022-08-21T19:51:09.663Z,8.23
2022-08-21T19:54:17.416Z,9.33
2022-08-21T19:57:19.994Z,9.35
2022-08-21T20:00:24.038Z,9.20
2022-08-21T20:03:26.596Z,9.70
2022-08-21T20:06:29.186Z,8.83
2022-08-21T20:09:33.024Z,8.87
2022-08-21T20:12:37.100Z,8.05
2022-08-21T20:15:39.987Z,8.30
2022-08-21T20:18:42.555Z,8.00
2022-08-21T20:21:46.445Z,8.07
2022-08-21T20:24:49.195Z,9.53
2022-08-21T20:27:51.602Z,7.90
2022-08-21T20:30:54.075Z,7.85
2022-08-21T20:33:56.628Z,8.45
2022-08-21T20:36:59.081Z,8.50
2022-08-21T20:40:08.145Z,8.27
2022-08-21T20:43:13.340Z,9.23
2022-08-21T20:46:22.451Z,8.07
2022-08-21T20:49:31.342Z,8.43
2022-08-21T20:52:36.988Z,8.03
2022-08-21T20:55:47.341Z,8.20
2022-08-21T20:59:00.379Z,7.88
2022-08-21T21:02:14.776Z,7.57
2022-08-21T21:05:43.171Z,7.70
2022-08-21T21:08:48.967Z,8.57
2022-08-21T21:11:57.579Z,7.57
2022-08-21T21:15:11.677Z,6.85
2022-08-21T21:18:32.295Z,6.78
2022-08-21T21:21:40.115Z,7.90
2022-08-21T21:25:06.218Z,6.65
2022-08-21T21:28:12.926Z,5.67
2022-08-21T21:31:17.295Z,5.82
2022-08-21T21:34:26.696Z,6.35
2022-08-21T21:37:33.777Z,5.70
2022-08-21T21:41:25.032Z,6.20
2022-08-21T21:44:45.360Z,6.13
2022-08-21T21:48:14.908Z,7.57
2022-08-21T21:52:00.081Z,7.65
2022-08-21T21:55:07.115Z,9.98
2022-08-21T21:58:44.055Z,9.90
2022-08-21T22:01:55.747Z,10.60
2022-08-21T22:05:07.281Z,10.05
2022-08-21T22:08:39.344Z,9.18
2022-08-21T22:12:17.407Z,9.15
2022-08-21T22:15:27.346Z,9.55
2022-08-21T22:18:37.517Z,10.30
2022-08-21T22:21:54.515Z,9.45
2022-08-21T22:25:07.706Z,9.10
2022-08-21T22:28:25.407Z,8.82
2022-08-21T22:31:32.389Z,9.25
2022-08-21T22:34:34.789Z,9.00
2022-08-21T22:37:40.497Z,9.43
2022-08-21T22:40:43.027Z,9.30
2022-08-21T22:44:01.705Z,10.18
2022-08-21T22:47:06.091Z,10.17
2022-08-21T22:50:32.533Z,10.20
2022-08-21T22:53:38.580Z,10.43
2022-08-21T22:56:45.273Z,9.95
2022-08-21T23:00:07.518Z,10.30
2022-08-21T23:03:18.906Z,10.77
2022-08-21T23:06:26.453Z,11.00
2022-08-21T23:09:36.512Z,10.60
2022-08-21T23:16:23.868Z,11.40
2022-08-21T23:20:09.913Z,11.73
2022-08-21T23:23:19.239Z,10.63
2022-08-21T23:26:36.814Z,12.07
2022-08-21T23:30:07.446Z,11.07
2022-08-21T23:33:18.943Z,12.35
2022-08-21T23:37:17.329Z,12.07
2022-08-21T23:40:50.425Z,11.27
2022-08-21T23:44:18.673Z,10.50
2022-08-21T23:47:37.896Z,11.73
2022-08-21T23:50:43.008Z,9.57
2022-08-21T23:53:59.355Z,10.27
2022-08-21T23:57:08.245Z,10.40
